createdAt,value
2018-06-17T00:01:15.308Z,20.60
2018-06-17T00:03:43.874Z,20.60
2018-06-17T00:06:12.403Z,20.60
2018-06-17T00:08:40.782Z,20.50
2018-06-17T00:11:09.263Z,20.50
2018-06-17T00:13:37.669Z,20.50
2018-06-17T00:16:06.194Z,20.50
2018-06-17T00:18:34.654Z,20.40
2018-06-17T00:21:03.993Z,20.40
2018-06-17T00:23:32.550Z,20.40
2018-06-17T00:26:01.113Z,20.40
2018-06-17T00:28:29.649Z,20.40
2018-06-17T00:30:58.138Z,20.40
2018-06-17T00:33:26.581Z,20.40
2018-06-17T00:35:55.008Z,20.40
2018-06-17T00:38:23.496Z,20.40
2018-06-17T00:40:51.974Z,20.30
2018-06-17T00:43:20.465Z,20.40
2018-06-17T00:45:49.018Z,20.30
2018-06-17T00:48:17.617Z,20.30
2018-06-17T00:50:46.150Z,20.30
2018-06-17T00:53:14.659Z,20.30
2018-06-17T00:55:43.216Z,20.30
2018-06-17T00:58:11.664Z,20.20
2018-06-17T01:00:40.144Z,20.20
2018-06-17T01:03:08.614Z,20.20
2018-06-17T01:05:37.128Z,20.20
2018-06-17T01:08:05.651Z,20.20
2018-06-17T01:10:34.041Z,20.20
2018-06-17T01:13:02.581Z,20.20
2018-06-17T01:15:31.064Z,20.20
2018-06-17T01:17:59.528Z,20.10
2018-06-17T01:20:28.105Z,20.10
2018-06-17T01:22:56.543Z,20.10
2018-06-17T01:25:25.080Z,20.10
2018-06-17T01:27:53.569Z,20.10
2018-06-17T01:30:28.456Z,20.00
2018-06-17T01:32:56.895Z,20.00
2018-06-17T01:35:25.357Z,19.90
2018-06-17T01:37:53.836Z,19.90
2018-06-17T01:40:22.373Z,19.90
2018-06-17T01:42:50.754Z,19.90
2018-06-17T01:45:19.206Z,19.90
2018-06-17T01:47:47.710Z,19.80
2018-06-17T01:50:16.092Z,19.80
2018-06-17T01:52:44.577Z,19.80
2018-06-17T01:55:13.025Z,19.80
2018-06-17T01:57:41.445Z,19.70
2018-06-17T02:00:09.894Z,19.70
2018-06-17T02:02:38.308Z,19.70
2018-06-17T02:05:11.898Z,19.60
2018-06-17T02:07:45.776Z,19.60
2018-06-17T02:12:25.436Z,19.60
2018-06-17T02:14:57.763Z,19.60
2018-06-17T02:17:27.060Z,19.50
2018-06-17T02:19:55.907Z,19.50
2018-06-17T02:22:24.738Z,19.40
2018-06-17T02:24:53.296Z,19.40
2018-06-17T02:27:21.635Z,19.40
2018-06-17T02:29:50.053Z,19.40
2018-06-17T02:32:18.809Z,19.40
2018-06-17T02:34:47.364Z,19.40
2018-06-17T02:37:15.823Z,19.30
2018-06-17T02:39:44.271Z,19.30
2018-06-17T02:42:12.655Z,19.30
2018-06-17T02:44:41.185Z,19.30
2018-06-17T02:47:14.870Z,19.20
2018-06-17T02:49:46.674Z,19.20
2018-06-17T02:52:20.393Z,19.20
2018-06-17T02:54:49.153Z,19.10
2018-06-17T02:57:18.767Z,19.10
2018-06-17T02:59:47.624Z,19.10
2018-06-17T03:02:16.295Z,19.00
2018-06-17T03:04:44.807Z,19.00
2018-06-17T03:07:13.269Z,19.00
2018-06-17T03:09:41.693Z,19.00
2018-06-17T03:12:10.222Z,18.90
2018-06-17T03:14:38.704Z,18.90
2018-06-17T03:17:07.252Z,18.80
2018-06-17T03:19:35.694Z,18.70
2018-06-17T03:22:04.097Z,18.70
2018-06-17T03:24:37.732Z,18.70
2018-06-17T03:27:11.347Z,18.70
2018-06-17T03:29:44.876Z,18.70
2018-06-17T03:32:18.538Z,18.60
2018-06-17T03:34:51.214Z,18.60
2018-06-17T03:37:19.663Z,18.60
2018-06-17T03:39:48.054Z,18.60
2018-06-17T03:42:16.511Z,18.60
2018-06-17T03:44:44.919Z,18.60
2018-06-17T03:47:13.392Z,18.50
2018-06-17T03:49:41.779Z,18.50
2018-06-17T03:52:10.181Z,18.50
2018-06-17T03:54:38.622Z,18.50
2018-06-17T03:57:07.061Z,18.50
2018-06-17T03:59:35.473Z,18.50
2018-06-17T04:02:03.920Z,18.50
2018-06-17T04:04:36.562Z,18.50
2018-06-17T04:07:04.922Z,18.50
2018-06-17T04:09:33.390Z,18.50
2018-06-17T04:12:01.886Z,18.50
2018-06-17T04:14:30.429Z,18.50
2018-06-17T04:17:03.290Z,18.50
2018-06-17T04:19:31.669Z,18.50
2018-06-17T04:22:00.135Z,18.50
2018-06-17T04:24:28.737Z,18.50
2018-06-17T04:26:57.160Z,18.50
2018-06-17T04:29:25.561Z,18.50
2018-06-17T04:31:54.090Z,18.50
2018-06-17T04:34:22.546Z,18.50
2018-06-17T04:36:51.089Z,18.50
2018-06-17T04:39:19.504Z,18.50
2018-06-17T04:41:47.923Z,18.50
2018-06-17T04:44:16.338Z,18.60
2018-06-17T04:46:44.732Z,18.50
2018-06-17T04:49:13.145Z,18.60
2018-06-17T04:51:41.626Z,18.60
2018-06-17T04:54:10.247Z,18.60
2018-06-17T04:56:38.627Z,18.60
2018-06-17T04:59:07.060Z,18.60
2018-06-17T05:01:35.982Z,18.60
2018-06-17T05:04:04.453Z,18.60
2018-06-17T05:06:32.979Z,18.50
2018-06-17T05:09:01.343Z,18.50
2018-06-17T05:11:29.701Z,18.60
2018-06-17T05:13:58.265Z,18.60
2018-06-17T05:16:26.634Z,18.60
2018-06-17T05:18:55.089Z,18.60
2018-06-17T05:21:23.802Z,18.60
2018-06-17T05:23:52.280Z,18.60
2018-06-17T05:26:20.709Z,18.60
2018-06-17T05:28:49.137Z,18.60
2018-06-17T05:31:17.648Z,18.60
2018-06-17T05:33:46.134Z,18.50
2018-06-17T05:36:14.628Z,18.50
2018-06-17T05:38:42.961Z,18.60
2018-06-17T05:41:11.450Z,18.60
2018-06-17T05:43:39.940Z,18.60
2018-06-17T05:46:08.481Z,18.70
2018-06-17T05:48:36.921Z,18.70
2018-06-17T05:51:05.398Z,18.70
2018-06-17T05:53:33.785Z,18.70
2018-06-17T05:56:02.274Z,18.70
2018-06-17T05:58:30.853Z,18.70
2018-06-17T06:00:59.341Z,18.80
2018-06-17T06:03:27.742Z,18.80
2018-06-17T06:05:56.384Z,18.80
2018-06-17T06:08:24.855Z,18.90
2018-06-17T06:10:53.388Z,18.90
2018-06-17T06:13:21.771Z,18.90
2018-06-17T06:15:50.227Z,18.90
2018-06-17T06:18:18.676Z,18.90
2018-06-17T06:20:47.420Z,18.90
2018-06-17T06:23:15.796Z,18.90
2018-06-17T06:25:44.246Z,18.90
2018-06-17T06:28:12.800Z,18.90
2018-06-17T06:30:41.403Z,18.90
2018-06-17T06:33:09.969Z,18.80
2018-06-17T06:35:38.429Z,18.80
2018-06-17T06:38:07.032Z,18.80
2018-06-17T06:40:35.531Z,18.80
2018-06-17T06:43:03.993Z,18.80
2018-06-17T06:45:32.494Z,18.80
2018-06-17T06:48:00.876Z,18.80
2018-06-17T06:50:29.377Z,18.90
2018-06-17T06:52:57.773Z,18.90
2018-06-17T06:55:26.253Z,18.90
2018-06-17T06:57:54.915Z,18.90
2018-06-17T07:00:23.474Z,18.90
2018-06-17T07:03:03.043Z,18.90
2018-06-17T07:05:43.681Z,19.00
2018-06-17T07:08:23.323Z,19.00
2018-06-17T07:10:51.817Z,19.10
2018-06-17T07:13:20.910Z,19.10
2018-06-17T07:16:00.645Z,19.20
2018-06-17T07:18:31.061Z,19.20
2018-06-17T07:20:59.889Z,19.20
2018-06-17T07:23:28.342Z,19.20
2018-06-17T07:26:34.223Z,19.20
2018-06-17T07:29:13.906Z,19.20
2018-06-17T07:31:42.427Z,19.20
2018-06-17T07:34:11.599Z,19.20
2018-06-17T07:36:40.437Z,19.20
2018-06-17T07:41:23.990Z,19.30
2018-06-17T07:43:52.413Z,19.30
2018-06-17T07:46:21.066Z,19.20
2018-06-17T07:49:57.477Z,19.30
2018-06-17T07:52:38.028Z,19.30
2018-06-17T07:55:06.473Z,19.30
2018-06-17T07:57:35.290Z,19.40
2018-06-17T08:00:03.785Z,19.40
2018-06-17T08:02:32.162Z,19.50
2018-06-17T08:05:00.665Z,19.60
2018-06-17T08:07:29.034Z,19.60
2018-06-17T08:09:57.468Z,19.70
2018-06-17T08:12:25.941Z,19.70
2018-06-17T08:14:54.372Z,19.70
2018-06-17T08:17:22.854Z,19.80
2018-06-17T08:19:51.294Z,19.80
2018-06-17T08:22:19.755Z,19.80
2018-06-17T08:24:48.270Z,19.80
2018-06-17T08:27:16.720Z,19.90
2018-06-17T08:29:45.120Z,19.90
2018-06-17T08:32:13.488Z,19.90
2018-06-17T08:34:41.932Z,19.90
2018-06-17T08:37:10.329Z,19.90
2018-06-17T08:39:38.890Z,19.90
2018-06-17T08:42:07.348Z,19.90
2018-06-17T08:44:35.836Z,19.90
2018-06-17T08:47:04.304Z,20.00
2018-06-17T08:49:32.774Z,20.00
2018-06-17T08:52:01.188Z,20.00
2018-06-17T08:54:29.622Z,19.90
2018-06-17T08:56:58.037Z,19.90
2018-06-17T08:59:26.545Z,19.90
2018-06-17T09:01:54.933Z,20.00
2018-06-17T09:04:23.367Z,20.10
2018-06-17T09:06:51.806Z,20.10
2018-06-17T09:09:20.177Z,20.10
2018-06-17T09:11:48.639Z,20.00
2018-06-17T09:14:18.813Z,20.00
2018-06-17T09:16:47.162Z,20.00
2018-06-17T09:19:15.764Z,20.00
2018-06-17T09:21:44.385Z,20.00
2018-06-17T09:24:13.641Z,20.10
2018-06-17T09:26:41.984Z,20.20
2018-06-17T09:29:11.059Z,20.30
2018-06-17T09:31:39.419Z,20.40
2018-06-17T09:34:08.526Z,20.50
2018-06-17T09:36:37.212Z,20.60
2018-06-17T09:39:08.615Z,20.60
2018-06-17T09:41:38.302Z,20.60
2018-06-17T09:44:06.696Z,20.60
2018-06-17T09:46:35.185Z,20.60
2018-06-17T09:49:03.662Z,20.60
2018-06-17T09:51:48.617Z,20.60
2018-06-17T09:54:17.090Z,20.60
2018-06-17T09:56:45.506Z,20.60
2018-06-17T09:59:13.904Z,20.60
2018-06-17T10:01:42.729Z,20.60
2018-06-17T10:04:11.286Z,20.60
2018-06-17T10:06:39.797Z,20.60
2018-06-17T10:09:09.222Z,20.70
2018-06-17T10:11:37.649Z,20.70
2018-06-17T10:14:06.188Z,20.70
2018-06-17T10:16:34.621Z,20.80
2018-06-17T10:19:03.118Z,20.70
2018-06-17T10:21:31.491Z,20.70
2018-06-17T10:23:59.906Z,20.80
2018-06-17T10:26:28.412Z,20.90
2018-06-17T10:28:56.834Z,20.90
2018-06-17T10:31:25.198Z,21.00
2018-06-17T10:33:53.603Z,21.20
2018-06-17T10:36:22.229Z,21.30
2018-06-17T10:38:50.705Z,21.30
2018-06-17T10:41:19.072Z,21.30
2018-06-17T10:43:47.538Z,21.20
2018-06-17T10:46:16.145Z,21.10
2018-06-17T10:48:44.532Z,21.20
2018-06-17T10:51:12.906Z,21.40
2018-06-17T10:53:41.396Z,21.50
2018-06-17T10:56:09.981Z,21.60
2018-06-17T10:58:38.261Z,21.70
2018-06-17T11:01:06.680Z,21.90
2018-06-17T11:03:35.126Z,22.00
2018-06-17T11:06:03.570Z,22.10
2018-06-17T11:08:32.020Z,22.10
2018-06-17T11:11:00.368Z,21.90
2018-06-17T11:13:28.801Z,21.80
2018-06-17T11:15:57.293Z,21.60
2018-06-17T11:18:25.661Z,21.40
2018-06-17T11:20:54.005Z,21.30
2018-06-17T11:23:22.441Z,21.20
2018-06-17T11:25:50.936Z,21.30
2018-06-17T11:28:19.353Z,21.20
2018-06-17T11:30:47.714Z,21.20
2018-06-17T11:33:16.041Z,21.50
2018-06-17T11:35:45.846Z,21.70
2018-06-17T11:38:14.576Z,21.90
2018-06-17T11:40:42.996Z,22.20
2018-06-17T11:43:11.570Z,22.20
2018-06-17T11:45:40.369Z,22.20
2018-06-17T11:48:09.900Z,22.20
2018-06-17T11:50:39.320Z,22.20
2018-06-17T11:53:08.933Z,22.30
2018-06-17T11:55:37.971Z,22.30
2018-06-17T11:58:07.141Z,22.40
2018-06-17T12:00:36.356Z,22.30
2018-06-17T12:03:04.874Z,22.20
2018-06-17T12:05:33.532Z,22.00
2018-06-17T12:08:01.981Z,21.80
2018-06-17T12:10:30.429Z,21.50
2018-06-17T12:12:58.960Z,21.40
2018-06-17T12:15:27.452Z,21.30
2018-06-17T12:17:55.876Z,21.20
2018-06-17T12:20:24.367Z,21.20
2018-06-17T12:22:52.815Z,21.10
2018-06-17T12:25:21.759Z,21.10
2018-06-17T12:27:50.253Z,21.20
2018-06-17T12:30:19.304Z,21.10
2018-06-17T12:32:47.844Z,21.20
2018-06-17T12:35:17.062Z,21.30
2018-06-17T12:37:45.598Z,21.20
2018-06-17T12:40:14.946Z,21.20
2018-06-17T12:42:43.506Z,21.30
2018-06-17T12:45:12.073Z,21.30
2018-06-17T12:47:40.521Z,21.30
2018-06-17T12:50:09.583Z,21.30
2018-06-17T12:52:38.032Z,21.20
2018-06-17T12:55:06.410Z,21.20
2018-06-17T12:57:35.428Z,21.20
2018-06-17T13:00:05.072Z,21.20
2018-06-17T13:02:33.489Z,21.30
2018-06-17T13:05:01.901Z,21.30
2018-06-17T13:07:31.513Z,21.40
2018-06-17T13:09:59.954Z,21.40
2018-06-17T13:12:34.565Z,21.40
2018-06-17T13:15:02.957Z,21.40
2018-06-17T13:17:31.378Z,21.50
2018-06-17T13:19:59.793Z,21.50
2018-06-17T13:22:28.205Z,21.30
2018-06-17T13:24:56.565Z,21.30
2018-06-17T13:27:25.449Z,21.40
2018-06-17T13:29:53.826Z,21.40
2018-06-17T13:32:22.319Z,21.40
2018-06-17T13:34:54.401Z,21.40
2018-06-17T13:37:40.831Z,21.40
2018-06-17T13:40:11.816Z,21.50
2018-06-17T13:42:40.714Z,21.50
2018-06-17T13:49:16.441Z,21.60
2018-06-17T13:55:26.208Z,21.60
2018-06-17T13:58:35.509Z,21.70
2018-06-17T14:01:46.841Z,21.70
2018-06-17T14:04:48.513Z,21.80
2018-06-17T14:07:38.688Z,22.00
2018-06-17T14:10:19.644Z,22.20
2018-06-17T14:13:26.162Z,22.30
2018-06-17T14:15:56.644Z,22.20
2018-06-17T14:18:28.950Z,22.10
2018-06-17T14:21:00.313Z,22.10
2018-06-17T14:23:47.308Z,22.10
2018-06-17T14:36:03.384Z,21.70
2018-06-17T14:41:06.622Z,21.40
2018-06-17T14:43:41.003Z,21.40
2018-06-17T14:46:14.806Z,21.40
2018-06-17T14:48:48.649Z,21.40
2018-06-17T14:51:22.731Z,21.40
2018-06-17T14:53:54.348Z,21.40
2018-06-17T14:56:22.713Z,21.40
2018-06-17T14:58:51.284Z,21.30
2018-06-17T15:01:19.758Z,21.30
2018-06-17T15:03:48.394Z,21.30
2018-06-17T15:06:16.913Z,21.20
2018-06-17T15:08:45.840Z,21.10
2018-06-17T15:11:17.966Z,21.10
2018-06-17T15:13:46.367Z,21.10
2018-06-17T15:16:14.790Z,21.10
2018-06-17T15:18:43.203Z,21.10
2018-06-17T15:21:11.646Z,21.20
2018-06-17T15:23:40.086Z,21.10
2018-06-17T15:26:08.622Z,21.10
2018-06-17T15:28:39.045Z,21.20
2018-06-17T15:31:13.612Z,21.30
2018-06-17T15:33:47.456Z,21.30
2018-06-17T15:36:21.435Z,21.30
2018-06-17T15:38:52.236Z,21.30
2018-06-17T15:41:30.106Z,21.40
2018-06-17T15:43:58.920Z,21.40
2018-06-17T15:46:27.687Z,21.50
2018-06-17T15:48:56.488Z,21.60
2018-06-17T15:51:24.937Z,21.70
2018-06-17T15:53:53.395Z,21.80
2018-06-17T15:56:21.854Z,21.90
2018-06-17T15:58:51.164Z,22.00
2018-06-17T16:01:19.617Z,22.10
2018-06-17T16:03:48.117Z,22.10
2018-06-17T16:06:16.887Z,22.00
2018-06-17T16:08:45.466Z,22.00
2018-06-17T16:11:13.937Z,22.00
2018-06-17T16:13:47.879Z,22.10
2018-06-17T16:16:21.688Z,22.00
2018-06-17T16:18:55.540Z,22.10
2018-06-17T16:21:24.010Z,22.20
2018-06-17T16:23:52.569Z,22.20
2018-06-17T16:26:21.007Z,22.10
2018-06-17T16:28:49.477Z,22.10
2018-06-17T16:31:18.027Z,22.10
2018-06-17T16:33:46.540Z,22.00
2018-06-17T16:36:15.110Z,22.00
2018-06-17T16:38:43.681Z,22.10
2018-06-17T16:41:12.163Z,22.10
2018-06-17T16:43:41.109Z,22.00
2018-06-17T16:46:09.573Z,21.90
2018-06-17T16:48:38.148Z,22.00
2018-06-17T16:51:11.856Z,22.00
2018-06-17T16:53:45.749Z,22.00
2018-06-17T16:56:19.411Z,21.90
2018-06-17T16:58:53.058Z,22.00
2018-06-17T17:01:22.839Z,22.00
2018-06-17T17:03:51.380Z,21.90
2018-06-17T17:06:19.845Z,21.90
2018-06-17T17:08:48.212Z,21.80
2018-06-17T17:11:16.640Z,21.90
2018-06-17T17:13:45.146Z,21.80
2018-06-17T17:16:21.489Z,21.90
2018-06-17T17:18:50.121Z,21.90
2018-06-17T17:21:18.654Z,22.10
2018-06-17T17:23:49.222Z,22.10
2018-06-17T17:26:18.407Z,22.00
2018-06-17T17:28:48.374Z,21.90
2018-06-17T17:31:18.485Z,21.90
2018-06-17T17:33:52.318Z,21.80
2018-06-17T17:36:25.998Z,21.80
2018-06-17T17:38:59.567Z,21.70
2018-06-17T17:41:28.065Z,21.70
2018-06-17T17:43:56.546Z,21.70
2018-06-17T17:46:30.548Z,21.80
2018-06-17T17:48:59.025Z,21.80
2018-06-17T17:51:27.378Z,21.90
2018-06-17T17:53:56.030Z,22.00
2018-06-17T17:56:24.746Z,22.00
2018-06-17T17:58:53.217Z,22.00
2018-06-17T18:01:21.727Z,22.10
2018-06-17T18:03:51.814Z,22.10
2018-06-17T18:08:49.282Z,22.10
2018-06-17T18:11:17.858Z,22.10
2018-06-17T18:13:46.278Z,22.10
2018-06-17T18:16:14.809Z,22.10
2018-06-17T18:18:43.234Z,22.10
2018-06-17T18:21:11.740Z,22.00
2018-06-17T18:23:40.332Z,22.00
2018-06-17T18:26:14.089Z,21.90
2018-06-17T18:28:47.952Z,21.70
2018-06-17T18:31:16.405Z,21.60
2018-06-17T18:34:52.956Z,21.50
2018-06-17T18:37:22.540Z,21.20
2018-06-17T18:39:50.966Z,20.90
2018-06-17T18:42:19.440Z,20.70
2018-06-17T18:44:48.049Z,20.50
2018-06-17T18:47:16.518Z,20.30
2018-06-17T18:49:44.974Z,20.30
2018-06-17T18:52:13.467Z,20.40
2018-06-17T18:54:41.919Z,20.40
2018-06-17T18:57:10.491Z,20.50
2018-06-17T18:59:39.115Z,20.50
2018-06-17T19:02:07.654Z,20.50
2018-06-17T19:04:36.106Z,20.40
2018-06-17T19:07:04.522Z,20.40
2018-06-17T19:09:38.346Z,20.40
2018-06-17T19:12:12.250Z,20.40
2018-06-17T19:14:46.105Z,20.40
2018-06-17T19:18:17.653Z,20.40
2018-06-17T19:20:46.135Z,20.40
2018-06-17T19:23:14.686Z,20.40
2018-06-17T19:25:43.344Z,20.30
2018-06-17T19:28:12.866Z,20.30
2018-06-17T19:30:41.570Z,20.20
2018-06-17T19:33:10.071Z,20.00
2018-06-17T19:35:38.522Z,20.00
2018-06-17T19:38:07.171Z,19.90
2018-06-17T19:40:35.805Z,19.80
2018-06-17T19:45:32.568Z,19.80
2018-06-17T19:48:01.760Z,19.80
2018-06-17T19:50:35.473Z,19.80
2018-06-17T19:53:09.463Z,19.70
2018-06-17T19:55:43.396Z,19.70
2018-06-17T19:58:17.374Z,19.70
2018-06-17T20:00:47.670Z,19.70
2018-06-17T20:03:16.847Z,19.70
2018-06-17T20:05:45.378Z,19.60
2018-06-17T20:08:14.110Z,19.50
2018-06-17T20:10:42.768Z,19.40
2018-06-17T20:13:11.479Z,19.40
2018-06-17T20:15:43.086Z,19.30
2018-06-17T20:18:11.632Z,19.30
2018-06-17T20:20:40.154Z,19.30
2018-06-17T20:23:08.842Z,19.30
2018-06-17T20:25:37.418Z,19.30
2018-06-17T20:28:07.416Z,19.30
2018-06-17T20:30:38.576Z,19.40
2018-06-17T20:33:15.613Z,19.40
2018-06-17T20:35:51.663Z,19.30
2018-06-17T20:38:28.635Z,19.30
2018-06-17T20:41:03.724Z,19.30
2018-06-17T20:43:37.818Z,19.30
2018-06-17T20:46:06.684Z,19.30
2018-06-17T20:48:35.212Z,19.30
2018-06-17T20:51:03.697Z,19.30
2018-06-17T20:53:32.168Z,19.20
2018-06-17T20:56:00.638Z,19.20
2018-06-17T20:58:30.051Z,19.20
2018-06-17T21:00:58.531Z,19.20
2018-06-17T21:03:27.328Z,19.20
2018-06-17T21:05:56.096Z,19.20
2018-06-17T21:08:24.589Z,19.20
2018-06-17T21:10:53.105Z,19.20
2018-06-17T21:13:22.440Z,19.10
2018-06-17T21:15:50.905Z,19.10
2018-06-17T21:18:24.849Z,19.10
2018-06-17T21:20:58.573Z,19.10
2018-06-17T21:24:33.886Z,19.10
2018-06-17T21:27:07.658Z,19.10
2018-06-17T21:29:36.611Z,19.00
2018-06-17T21:32:05.096Z,19.00
2018-06-17T21:34:33.625Z,19.00
2018-06-17T21:37:02.194Z,19.00
2018-06-17T21:39:30.622Z,19.00
2018-06-17T21:41:59.128Z,19.00
2018-06-17T21:44:27.540Z,19.00
2018-06-17T21:46:55.968Z,19.00
2018-06-17T21:49:24.398Z,19.00
2018-06-17T21:51:52.820Z,19.00
2018-06-17T21:54:21.298Z,19.00
2018-06-17T21:56:49.722Z,19.00
2018-06-17T21:59:18.151Z,18.90
2018-06-17T22:01:46.598Z,19.00
2018-06-17T22:04:20.311Z,19.00
2018-06-17T22:06:48.994Z,19.00
2018-06-17T22:09:22.790Z,19.00
2018-06-17T22:11:56.625Z,19.00
2018-06-17T22:14:30.547Z,18.90
2018-06-17T22:17:04.441Z,18.90
2018-06-17T22:19:33.178Z,18.90
2018-06-17T22:22:01.661Z,18.90
2018-06-17T22:24:30.125Z,18.90
2018-06-17T22:26:58.606Z,18.80
2018-06-17T22:29:27.098Z,18.70
2018-06-17T22:31:55.544Z,18.60
2018-06-17T22:34:23.944Z,18.60
2018-06-17T22:36:52.441Z,18.50
2018-06-17T22:39:20.868Z,18.50
2018-06-17T22:41:49.302Z,18.50
2018-06-17T22:44:17.858Z,18.50
2018-06-17T22:46:46.621Z,18.40
2018-06-17T22:49:15.094Z,18.40
2018-06-17T22:51:43.622Z,18.40
2018-06-17T22:54:23.296Z,18.40
2018-06-17T22:56:57.085Z,18.40
2018-06-17T22:59:31.065Z,18.30
2018-06-17T23:02:04.680Z,18.30
2018-06-17T23:04:38.553Z,18.30
2018-06-17T23:07:12.516Z,18.30
2018-06-17T23:09:42.780Z,18.30
2018-06-17T23:12:11.217Z,18.30
2018-06-17T23:14:49.501Z,18.20
2018-06-17T23:17:18.010Z,18.20
2018-06-17T23:19:46.433Z,18.20
2018-06-17T23:22:16.572Z,18.20
2018-06-17T23:24:45.093Z,18.20
2018-06-17T23:27:30.273Z,18.20
2018-06-17T23:30:08.347Z,18.10
2018-06-17T23:32:36.817Z,18.10
2018-06-17T23:35:08.440Z,18.10
2018-06-17T23:37:38.854Z,18.10
2018-06-17T23:40:07.336Z,18.00
2018-06-17T23:42:35.757Z,18.00
2018-06-17T23:45:04.252Z,18.00
2018-06-17T23:47:38.093Z,18.00
2018-06-17T23:50:11.729Z,18.00
2018-06-17T23:52:46.013Z,17.90
2018-06-17T23:55:19.762Z,17.90
2018-06-17T23:57:48.276Z,17.90
